This is the latest recevied weather packets stored in our database for station/object DL7HMX-13. If no packets are shown the sender has not sent any weather packets the latest 1 day(s).
| Time | Temp. | Humidity | Pressure | Rain* | Wind** | Luminosity | Snow |
|---|---|---|---|---|---|---|---|
| 1777977621 | 24.44° C | 48% | 1006.9 hPa | 0 mm | 0.89 m/s, 68° | 728 W/m² | - |
| 1777977025 | 23.89° C | 49% | 1007 hPa | 0 mm | 0.45 m/s, 81° | 457 W/m² | - |
| 1777976427 | 23.89° C | 49% | 1007.1 hPa | 0 mm | 0.89 m/s, 74° | 721 W/m² | - |
| 1777975831 | 23.33° C | 51% | 1007.3 hPa | 0 mm | 0.89 m/s, 41° | 674 W/m² | - |
| 1777975217 | 22.78° C | 53% | 1007.3 hPa | 0 mm | 0.89 m/s, 43° | 583 W/m² | - |
| 1777974620 | 23.89° C | 51% | 1007.5 hPa | 0 mm | 0.45 m/s, 81° | 569 W/m² | - |
| 1777974022 | 23.33° C | 51% | 1007.6 hPa | 0 mm | 0.45 m/s, 110° | 611 W/m² | - |
| 1777973427 | 23.89° C | 52% | 1007.7 hPa | 0 mm | 0.45 m/s, 92° | 573 W/m² | - |
| 1777972829 | 22.22° C | 55% | 1007.8 hPa | 0 mm | 0.45 m/s, 71° | 582 W/m² | - |
| 1777972231 | 22.78° C | 55% | 1007.9 hPa | 0 mm | 0.45 m/s, 150° | 539 W/m² | - |
| 1777971618 | 22.22° C | 56% | 1008 hPa | 0 mm | 0.89 m/s, 136° | 582 W/m² | - |
| 1777971021 | 21.67° C | 58% | 1008.1 hPa | 0 mm | 0.89 m/s, 54° | 540 W/m² | - |
| 1777970424 | 20.56° C | 60% | 1008.1 hPa | 0 mm | 0.89 m/s, 49° | 538 W/m² | - |
| 1777969827 | 20.56° C | 58% | 1008.1 hPa | 0 mm | 0.45 m/s, 65° | 512 W/m² | - |
| 1777969231 | 20° C | 58% | 1008.2 hPa | 0 mm | 0.45 m/s, 72° | 474 W/m² | - |
| 1777968617 | 20.56° C | 58% | 1008.2 hPa | 0 mm | 0.45 m/s, 70° | 474 W/m² | - |
| 1777968020 | 20° C | 60% | 1008.4 hPa | 0 mm | 0.45 m/s, 77° | 466 W/m² | - |
| 1777967423 | 19.44° C | 61% | 1008.5 hPa | 0 mm | 0.45 m/s, 75° | 455 W/m² | - |
| 1777966826 | 19.44° C | 59% | 1008.5 hPa | 0 mm | 0.45 m/s, 69° | 431 W/m² | - |
| 1777966230 | 18.89° C | 61% | 1008.4 hPa | 0 mm | 0.45 m/s, 70° | 401 W/m² | - |
| 1777965632 | 18.89° C | 63% | 1008.5 hPa | 0 mm | 0.45 m/s, 66° | 384 W/m² | - |
| 1777965018 | 18.89° C | 65% | 1008.7 hPa | 0 mm | 0.45 m/s, 2° | 357 W/m² | - |
| 1777964422 | 18.33° C | 63% | 1008.7 hPa | 0 mm | 0 m/s | 332 W/m² | - |
| 1777963825 | 17.78° C | 70% | 1008.6 hPa | 0 mm | 0 m/s | 304 W/m² | - |
| 1777963227 | 16.67° C | 75% | 1008.6 hPa | 0 mm | 0.45 m/s, 87° | 277 W/m² | - |
* Rain latest hour (hover to see other rain measurements)
** Current wind speed in m/s (hover to see current wind gust speed)